sensor_id;sensor_type;location;lat;lon;timestamp;P1;durP1;ratioP1;P2;durP2;ratioP2
6642;SDS011;3357;48.050;7.800;2023-02-15T00:01:33;38.07;;;13.83;;
6642;SDS011;3357;48.050;7.800;2023-02-15T00:03:59;42.33;;;14.53;;
6642;SDS011;3357;48.050;7.800;2023-02-15T00:06:24;43.93;;;14.40;;
6642;SDS011;3357;48.050;7.800;2023-02-15T00:08:50;41.67;;;14.00;;
6642;SDS011;3357;48.050;7.800;2023-02-15T00:11:16;104.90;;;15.97;;
6642;SDS011;3357;48.050;7.800;2023-02-15T00:14:03;29.43;;;14.73;;
6642;SDS011;3357;48.050;7.800;2023-02-15T00:16:29;34.97;;;13.43;;
6642;SDS011;3357;48.050;7.800;2023-02-15T00:18:55;26.40;;;14.30;;
6642;SDS011;3357;48.050;7.800;2023-02-15T00:21:20;47.67;;;14.20;;
6642;SDS011;3357;48.050;7.800;2023-02-15T00:23:45;48.13;;;13.90;;
6642;SDS011;3357;48.050;7.800;2023-02-15T00:26:11;25.47;;;12.27;;
6642;SDS011;3357;48.050;7.800;2023-02-15T00:28:37;35.57;;;13.30;;
6642;SDS011;3357;48.050;7.800;2023-02-15T00:31:03;24.17;;;13.10;;
6642;SDS011;3357;48.050;7.800;2023-02-15T00:33:32;23.50;;;12.73;;
6642;SDS011;3357;48.050;7.800;2023-02-15T00:35:58;19.93;;;12.10;;
6642;SDS011;3357;48.050;7.800;2023-02-15T00:38:24;23.70;;;11.80;;
6642;SDS011;3357;48.050;7.800;2023-02-15T00:40:52;23.20;;;12.43;;
6642;SDS011;3357;48.050;7.800;2023-02-15T00:43:20;19.60;;;12.23;;
6642;SDS011;3357;48.050;7.800;2023-02-15T00:45:46;22.97;;;12.33;;
6642;SDS011;3357;48.050;7.800;2023-02-15T00:48:11;24.77;;;12.87;;
6642;SDS011;3357;48.050;7.800;2023-02-15T00:50:37;29.43;;;11.23;;
6642;SDS011;3357;48.050;7.800;2023-02-15T00:53:02;31.40;;;12.83;;
6642;SDS011;3357;48.050;7.800;2023-02-15T00:55:27;69.90;;;13.10;;
6642;SDS011;3357;48.050;7.800;2023-02-15T00:57:53;20.77;;;12.47;;
6642;SDS011;3357;48.050;7.800;2023-02-15T01:00:18;37.13;;;12.50;;
6642;SDS011;3357;48.050;7.800;2023-02-15T01:02:43;44.70;;;12.00;;
6642;SDS011;3357;48.050;7.800;2023-02-15T01:05:08;19.27;;;11.30;;
6642;SDS011;3357;48.050;7.800;2023-02-15T01:07:34;20.37;;;11.87;;
6642;SDS011;3357;48.050;7.800;2023-02-15T01:09:59;29.30;;;11.20;;
6642;SDS011;3357;48.050;7.800;2023-02-15T01:12:24;27.40;;;13.50;;
6642;SDS011;3357;48.050;7.800;2023-02-15T01:14:49;21.20;;;12.50;;
6642;SDS011;3357;48.050;7.800;2023-02-15T01:17:15;24.33;;;10.80;;
6642;SDS011;3357;48.050;7.800;2023-02-15T01:19:40;30.70;;;13.37;;
6642;SDS011;3357;48.050;7.800;2023-02-15T01:22:05;33.93;;;13.07;;
6642;SDS011;3357;48.050;7.800;2023-02-15T01:24:30;20.40;;;12.23;;
6642;SDS011;3357;48.050;7.800;2023-02-15T01:26:56;28.10;;;12.03;;
6642;SDS011;3357;48.050;7.800;2023-02-15T01:29:21;21.03;;;11.07;;
6642;SDS011;3357;48.050;7.800;2023-02-15T01:31:46;19.40;;;11.53;;
6642;SDS011;3357;48.050;7.800;2023-02-15T01:34:12;39.77;;;11.77;;
6642;SDS011;3357;48.050;7.800;2023-02-15T01:36:37;23.00;;;12.43;;
6642;SDS011;3357;48.050;7.800;2023-02-15T01:39:02;30.30;;;12.10;;
6642;SDS011;3357;48.050;7.800;2023-02-15T01:41:27;22.20;;;12.50;;
6642;SDS011;3357;48.050;7.800;2023-02-15T01:43:54;23.67;;;12.50;;
6642;SDS011;3357;48.050;7.800;2023-02-15T01:46:21;36.00;;;12.60;;
6642;SDS011;3357;48.050;7.800;2023-02-15T01:48:50;52.93;;;12.60;;
6642;SDS011;3357;48.050;7.800;2023-02-15T01:51:18;43.10;;;12.27;;
6642;SDS011;3357;48.050;7.800;2023-02-15T01:53:52;39.53;;;13.00;;
6642;SDS011;3357;48.050;7.800;2023-02-15T01:56:22;28.50;;;12.60;;
6642;SDS011;3357;48.050;7.800;2023-02-15T01:58:49;49.40;;;11.50;;
6642;SDS011;3357;48.050;7.800;2023-02-15T02:01:17;41.03;;;12.70;;
6642;SDS011;3357;48.050;7.800;2023-02-15T02:06:29;25.63;;;10.70;;
6642;SDS011;3357;48.050;7.800;2023-02-15T02:08:55;26.77;;;12.60;;
6642;SDS011;3357;48.050;7.800;2023-02-15T02:11:21;20.13;;;10.73;;
6642;SDS011;3357;48.050;7.800;2023-02-15T02:13:46;25.03;;;11.00;;
6642;SDS011;3357;48.050;7.800;2023-02-15T02:16:20;19.53;;;11.30;;
6642;SDS011;3357;48.050;7.800;2023-02-15T02:22:16;42.83;;;12.00;;
6642;SDS011;3357;48.050;7.800;2023-02-15T02:43:56;26.57;;;11.70;;
6642;SDS011;3357;48.050;7.800;2023-02-15T02:46:30;17.57;;;10.37;;
6642;SDS011;3357;48.050;7.800;2023-02-15T02:49:02;24.17;;;10.93;;
6642;SDS011;3357;48.050;7.800;2023-02-15T02:51:27;59.53;;;15.03;;
6642;SDS011;3357;48.050;7.800;2023-02-15T02:53:54;45.70;;;11.23;;
6642;SDS011;3357;48.050;7.800;2023-02-15T02:56:29;30.20;;;11.60;;
6642;SDS011;3357;48.050;7.800;2023-02-15T02:59:08;30.30;;;11.33;;
6642;SDS011;3357;48.050;7.800;2023-02-15T03:01:42;26.90;;;11.17;;
6642;SDS011;3357;48.050;7.800;2023-02-15T03:04:15;19.13;;;10.87;;
6642;SDS011;3357;48.050;7.800;2023-02-15T03:06:47;20.60;;;11.33;;
6642;SDS011;3357;48.050;7.800;2023-02-15T03:09:24;41.37;;;13.03;;
6642;SDS011;3357;48.050;7.800;2023-02-15T03:11:59;32.23;;;11.30;;
6642;SDS011;3357;48.050;7.800;2023-02-15T03:14:24;49.17;;;10.27;;
6642;SDS011;3357;48.050;7.800;2023-02-15T03:16:50;18.63;;;9.80;;
6642;SDS011;3357;48.050;7.800;2023-02-15T03:19:17;15.93;;;9.50;;
6642;SDS011;3357;48.050;7.800;2023-02-15T03:21:50;20.97;;;9.70;;
6642;SDS011;3357;48.050;7.800;2023-02-15T03:25:05;14.50;;;9.30;;
6642;SDS011;3357;48.050;7.800;2023-02-15T03:27:15;17.37;;;10.30;;
6642;SDS011;3357;48.050;7.800;2023-02-15T03:29:45;21.40;;;11.03;;
6642;SDS011;3357;48.050;7.800;2023-02-15T03:32:11;32.63;;;10.90;;
6642;SDS011;3357;48.050;7.800;2023-02-15T03:34:38;19.50;;;11.27;;
6642;SDS011;3357;48.050;7.800;2023-02-15T03:37:05;26.30;;;11.13;;
6642;SDS011;3357;48.050;7.800;2023-02-15T03:40:02;27.70;;;10.30;;
6642;SDS011;3357;48.050;7.800;2023-02-15T03:42:50;19.53;;;10.93;;
6642;SDS011;3357;48.050;7.800;2023-02-15T03:45:22;30.77;;;10.47;;
6642;SDS011;3357;48.050;7.800;2023-02-15T03:47:51;20.17;;;10.60;;
6642;SDS011;3357;48.050;7.800;2023-02-15T03:50:18;54.83;;;11.67;;
6642;SDS011;3357;48.050;7.800;2023-02-15T03:53:05;22.10;;;10.40;;
6642;SDS011;3357;48.050;7.800;2023-02-15T03:55:32;24.50;;;12.37;;
6642;SDS011;3357;48.050;7.800;2023-02-15T03:57:58;20.30;;;11.33;;
6642;SDS011;3357;48.050;7.800;2023-02-15T04:00:44;20.83;;;10.10;;
6642;SDS011;3357;48.050;7.800;2023-02-15T04:03:36;18.70;;;10.77;;
6642;SDS011;3357;48.050;7.800;2023-02-15T04:06:04;26.03;;;10.90;;
6642;SDS011;3357;48.050;7.800;2023-02-15T04:08:30;19.30;;;10.00;;
6642;SDS011;3357;48.050;7.800;2023-02-15T04:11:13;28.20;;;11.40;;
6642;SDS011;3357;48.050;7.800;2023-02-15T04:13:39;23.77;;;10.73;;
6642;SDS011;3357;48.050;7.800;2023-02-15T04:16:04;18.80;;;11.10;;
6642;SDS011;3357;48.050;7.800;2023-02-15T04:18:30;34.53;;;9.40;;
6642;SDS011;3357;48.050;7.800;2023-02-15T04:21:15;32.83;;;10.17;;
6642;SDS011;3357;48.050;7.800;2023-02-15T04:23:59;18.53;;;9.73;;
6642;SDS011;3357;48.050;7.800;2023-02-15T04:26:43;18.27;;;9.77;;
6642;SDS011;3357;48.050;7.800;2023-02-15T04:29:08;16.80;;;9.77;;
6642;SDS011;3357;48.050;7.800;2023-02-15T04:31:33;17.60;;;9.97;;
6642;SDS011;3357;48.050;7.800;2023-02-15T04:33:58;16.03;;;9.47;;
6642;SDS011;3357;48.050;7.800;2023-02-15T04:36:24;17.57;;;10.10;;
6642;SDS011;3357;48.050;7.800;2023-02-15T04:38:49;24.23;;;9.90;;
6642;SDS011;3357;48.050;7.800;2023-02-15T04:41:14;18.27;;;10.43;;
6642;SDS011;3357;48.050;7.800;2023-02-15T04:43:39;22.13;;;10.30;;
6642;SDS011;3357;48.050;7.800;2023-02-15T04:46:05;39.20;;;11.37;;
6642;SDS011;3357;48.050;7.800;2023-02-15T04:48:30;48.50;;;10.43;;
6642;SDS011;3357;48.050;7.800;2023-02-15T04:50:55;19.07;;;10.93;;
6642;SDS011;3357;48.050;7.800;2023-02-15T04:53:20;35.37;;;10.20;;
6642;SDS011;3357;48.050;7.800;2023-02-15T04:55:46;20.30;;;10.33;;
6642;SDS011;3357;48.050;7.800;2023-02-15T04:58:11;17.43;;;10.60;;
6642;SDS011;3357;48.050;7.800;2023-02-15T05:00:36;30.40;;;10.70;;
6642;SDS011;3357;48.050;7.800;2023-02-15T05:03:01;29.57;;;10.13;;
6642;SDS011;3357;48.050;7.800;2023-02-15T05:05:27;20.07;;;10.37;;
6642;SDS011;3357;48.050;7.800;2023-02-15T05:07:52;18.07;;;10.20;;
6642;SDS011;3357;48.050;7.800;2023-02-15T05:10:17;16.30;;;10.17;;
6642;SDS011;3357;48.050;7.800;2023-02-15T05:12:43;19.60;;;10.17;;
6642;SDS011;3357;48.050;7.800;2023-02-15T05:15:08;14.60;;;10.00;;
6642;SDS011;3357;48.050;7.800;2023-02-15T05:17:33;42.20;;;11.10;;
6642;SDS011;3357;48.050;7.800;2023-02-15T05:19:59;28.03;;;10.40;;
6642;SDS011;3357;48.050;7.800;2023-02-15T05:22:24;59.57;;;10.20;;
6642;SDS011;3357;48.050;7.800;2023-02-15T05:24:49;39.20;;;9.63;;
6642;SDS011;3357;48.050;7.800;2023-02-15T05:27:33;26.27;;;10.63;;
6642;SDS011;3357;48.050;7.800;2023-02-15T05:30:17;30.03;;;9.83;;
6642;SDS011;3357;48.050;7.800;2023-02-15T05:32:42;22.30;;;9.60;;
6642;SDS011;3357;48.050;7.800;2023-02-15T05:35:11;22.93;;;9.80;;
6642;SDS011;3357;48.050;7.800;2023-02-15T05:37:38;17.57;;;8.90;;
6642;SDS011;3357;48.050;7.800;2023-02-15T05:40:03;26.97;;;8.27;;
6642;SDS011;3357;48.050;7.800;2023-02-15T05:42:29;26.33;;;10.33;;
6642;SDS011;3357;48.050;7.800;2023-02-15T05:44:54;25.63;;;10.00;;
6642;SDS011;3357;48.050;7.800;2023-02-15T05:47:19;42.07;;;9.57;;
6642;SDS011;3357;48.050;7.800;2023-02-15T05:49:45;18.20;;;9.30;;
6642;SDS011;3357;48.050;7.800;2023-02-15T05:52:10;13.60;;;8.93;;
6642;SDS011;3357;48.050;7.800;2023-02-15T05:54:37;13.57;;;8.60;;
6642;SDS011;3357;48.050;7.800;2023-02-15T05:57:02;22.60;;;8.40;;
6642;SDS011;3357;48.050;7.800;2023-02-15T05:59:27;23.73;;;8.20;;
6642;SDS011;3357;48.050;7.800;2023-02-15T06:01:52;14.03;;;8.63;;
6642;SDS011;3357;48.050;7.800;2023-02-15T06:04:18;39.73;;;8.03;;
6642;SDS011;3357;48.050;7.800;2023-02-15T06:06:43;23.80;;;8.30;;
6642;SDS011;3357;48.050;7.800;2023-02-15T06:09:09;17.60;;;8.40;;
6642;SDS011;3357;48.050;7.800;2023-02-15T06:11:36;12.13;;;7.97;;
6642;SDS011;3357;48.050;7.800;2023-02-15T06:14:01;46.37;;;8.17;;
6642;SDS011;3357;48.050;7.800;2023-02-15T06:16:27;19.57;;;8.57;;
6642;SDS011;3357;48.050;7.800;2023-02-15T06:18:52;15.70;;;9.77;;
6642;SDS011;3357;48.050;7.800;2023-02-15T06:21:17;17.70;;;8.77;;
6642;SDS011;3357;48.050;7.800;2023-02-15T06:23:42;11.33;;;8.00;;
6642;SDS011;3357;48.050;7.800;2023-02-15T06:26:08;30.23;;;8.67;;
6642;SDS011;3357;48.050;7.800;2023-02-15T06:28:33;52.17;;;9.10;;
6642;SDS011;3357;48.050;7.800;2023-02-15T06:30:58;14.07;;;8.57;;
6642;SDS011;3357;48.050;7.800;2023-02-15T06:33:24;14.27;;;8.70;;
6642;SDS011;3357;48.050;7.800;2023-02-15T06:35:49;19.90;;;8.30;;
6642;SDS011;3357;48.050;7.800;2023-02-15T06:38:14;19.53;;;8.60;;
6642;SDS011;3357;48.050;7.800;2023-02-15T06:40:40;15.83;;;8.03;;
6642;SDS011;3357;48.050;7.800;2023-02-15T06:43:05;12.47;;;7.80;;
6642;SDS011;3357;48.050;7.800;2023-02-15T06:45:30;15.17;;;8.47;;
6642;SDS011;3357;48.050;7.800;2023-02-15T06:47:55;19.83;;;8.90;;
6642;SDS011;3357;48.050;7.800;2023-02-15T06:50:21;26.63;;;8.97;;
6642;SDS011;3357;48.050;7.800;2023-02-15T06:52:46;15.97;;;8.00;;
6642;SDS011;3357;48.050;7.800;2023-02-15T06:55:11;15.50;;;8.10;;
6642;SDS011;3357;48.050;7.800;2023-02-15T06:57:36;23.60;;;8.53;;
6642;SDS011;3357;48.050;7.800;2023-02-15T07:00:02;40.27;;;8.03;;
6642;SDS011;3357;48.050;7.800;2023-02-15T07:02:29;32.33;;;9.60;;
6642;SDS011;3357;48.050;7.800;2023-02-15T07:04:56;11.83;;;8.07;;
6642;SDS011;3357;48.050;7.800;2023-02-15T07:07:21;13.93;;;7.93;;
6642;SDS011;3357;48.050;7.800;2023-02-15T07:09:46;13.67;;;7.90;;
6642;SDS011;3357;48.050;7.800;2023-02-15T07:12:12;19.57;;;9.00;;
6642;SDS011;3357;48.050;7.800;2023-02-15T07:14:56;15.83;;;8.33;;
6642;SDS011;3357;48.050;7.800;2023-02-15T07:17:23;16.70;;;8.77;;
6642;SDS011;3357;48.050;7.800;2023-02-15T07:19:48;36.33;;;9.17;;
6642;SDS011;3357;48.050;7.800;2023-02-15T07:22:13;15.30;;;8.50;;
6642;SDS011;3357;48.050;7.800;2023-02-15T07:24:38;20.10;;;7.80;;
6642;SDS011;3357;48.050;7.800;2023-02-15T07:27:04;14.63;;;9.30;;
6642;SDS011;3357;48.050;7.800;2023-02-15T07:29:31;20.00;;;8.57;;
6642;SDS011;3357;48.050;7.800;2023-02-15T07:31:56;17.53;;;8.20;;
6642;SDS011;3357;48.050;7.800;2023-02-15T07:34:22;20.43;;;8.00;;
6642;SDS011;3357;48.050;7.800;2023-02-15T07:36:47;15.20;;;8.03;;
6642;SDS011;3357;48.050;7.800;2023-02-15T07:39:15;31.97;;;8.50;;
6642;SDS011;3357;48.050;7.800;2023-02-15T07:41:40;12.03;;;7.50;;
6642;SDS011;3357;48.050;7.800;2023-02-15T07:44:06;15.20;;;8.30;;
6642;SDS011;3357;48.050;7.800;2023-02-15T07:46:36;22.70;;;8.97;;
6642;SDS011;3357;48.050;7.800;2023-02-15T07:49:02;13.80;;;8.70;;
6642;SDS011;3357;48.050;7.800;2023-02-15T07:51:28;26.73;;;9.80;;
6642;SDS011;3357;48.050;7.800;2023-02-15T07:53:54;54.17;;;11.50;;
6642;SDS011;3357;48.050;7.800;2023-02-15T07:56:20;16.10;;;9.40;;
6642;SDS011;3357;48.050;7.800;2023-02-15T07:58:45;33.33;;;8.90;;
6642;SDS011;3357;48.050;7.800;2023-02-15T08:01:17;25.73;;;9.57;;
6642;SDS011;3357;48.050;7.800;2023-02-15T08:03:44;25.40;;;9.30;;
6642;SDS011;3357;48.050;7.800;2023-02-15T08:06:09;18.70;;;9.43;;
6642;SDS011;3357;48.050;7.800;2023-02-15T08:08:36;17.77;;;9.80;;
6642;SDS011;3357;48.050;7.800;2023-02-15T08:16:49;17.23;;;10.03;;
6642;SDS011;3357;48.050;7.800;2023-02-15T08:24:16;13.10;;;7.93;;
6642;SDS011;3357;48.050;7.800;2023-02-15T08:26:43;17.40;;;9.73;;
6642;SDS011;3357;48.050;7.800;2023-02-15T08:29:11;15.73;;;8.30;;
6642;SDS011;3357;48.050;7.800;2023-02-15T08:31:37;35.40;;;12.03;;
6642;SDS011;3357;48.050;7.800;2023-02-15T08:34:02;19.80;;;9.67;;
6642;SDS011;3357;48.050;7.800;2023-02-15T08:36:29;19.00;;;10.10;;
6642;SDS011;3357;48.050;7.800;2023-02-15T08:39:00;15.10;;;9.00;;
6642;SDS011;3357;48.050;7.800;2023-02-15T08:41:27;26.47;;;9.80;;
6642;SDS011;3357;48.050;7.800;2023-02-15T08:43:55;15.07;;;8.93;;
6642;SDS011;3357;48.050;7.800;2023-02-15T08:46:22;17.53;;;8.80;;
6642;SDS011;3357;48.050;7.800;2023-02-15T08:48:49;17.30;;;9.70;;
6642;SDS011;3357;48.050;7.800;2023-02-15T08:51:16;22.07;;;9.80;;
6642;SDS011;3357;48.050;7.800;2023-02-15T08:53:47;17.00;;;10.03;;
6642;SDS011;3357;48.050;7.800;2023-02-15T08:56:14;20.63;;;9.93;;
6642;SDS011;3357;48.050;7.800;2023-02-15T08:58:40;29.13;;;10.00;;
6642;SDS011;3357;48.050;7.800;2023-02-15T09:01:09;15.43;;;9.40;;
6642;SDS011;3357;48.050;7.800;2023-02-15T09:03:35;18.20;;;9.67;;
6642;SDS011;3357;48.050;7.800;2023-02-15T09:06:00;15.60;;;8.57;;
6642;SDS011;3357;48.050;7.800;2023-02-15T09:08:26;18.27;;;9.17;;
6642;SDS011;3357;48.050;7.800;2023-02-15T09:10:52;21.73;;;9.00;;
6642;SDS011;3357;48.050;7.800;2023-02-15T09:13:18;14.30;;;9.00;;
6642;SDS011;3357;48.050;7.800;2023-02-15T09:15:43;16.97;;;9.13;;
6642;SDS011;3357;48.050;7.800;2023-02-15T09:18:08;19.50;;;9.90;;
6642;SDS011;3357;48.050;7.800;2023-02-15T09:20:37;21.27;;;9.53;;
6642;SDS011;3357;48.050;7.800;2023-02-15T09:23:02;16.60;;;9.30;;
6642;SDS011;3357;48.050;7.800;2023-02-15T09:25:28;18.03;;;10.53;;
6642;SDS011;3357;48.050;7.800;2023-02-15T09:27:53;17.83;;;10.37;;
6642;SDS011;3357;48.050;7.800;2023-02-15T09:30:19;17.50;;;10.03;;
6642;SDS011;3357;48.050;7.800;2023-02-15T09:32:44;15.40;;;9.60;;
6642;SDS011;3357;48.050;7.800;2023-02-15T09:35:11;15.40;;;8.90;;
6642;SDS011;3357;48.050;7.800;2023-02-15T09:37:36;14.70;;;9.50;;
6642;SDS011;3357;48.050;7.800;2023-02-15T09:40:02;16.33;;;8.97;;
6642;SDS011;3357;48.050;7.800;2023-02-15T09:48:09;17.23;;;8.53;;
6642;SDS011;3357;48.050;7.800;2023-02-15T09:50:56;16.63;;;8.40;;
6642;SDS011;3357;48.050;7.800;2023-02-15T09:56:05;17.60;;;10.20;;
6642;SDS011;3357;48.050;7.800;2023-02-15T10:01:09;15.63;;;9.57;;
6642;SDS011;3357;48.050;7.800;2023-02-15T10:03:53;34.30;;;10.80;;
6642;SDS011;3357;48.050;7.800;2023-02-15T10:06:42;16.83;;;9.77;;
6642;SDS011;3357;48.050;7.800;2023-02-15T10:09:16;27.30;;;10.93;;
6642;SDS011;3357;48.050;7.800;2023-02-15T10:15:24;21.77;;;10.83;;
6642;SDS011;3357;48.050;7.800;2023-02-15T10:29:48;23.03;;;11.20;;
6642;SDS011;3357;48.050;7.800;2023-02-15T10:31:55;15.90;;;10.60;;
6642;SDS011;3357;48.050;7.800;2023-02-15T10:40:20;26.20;;;11.30;;
6642;SDS011;3357;48.050;7.800;2023-02-15T10:56:17;20.20;;;12.77;;
6642;SDS011;3357;48.050;7.800;2023-02-15T11:01:37;21.13;;;11.33;;
6642;SDS011;3357;48.050;7.800;2023-02-15T11:07:03;20.90;;;12.13;;
6642;SDS011;3357;48.050;7.800;2023-02-15T11:09:33;19.53;;;12.50;;
6642;SDS011;3357;48.050;7.800;2023-02-15T11:12:03;19.17;;;11.80;;
6642;SDS011;3357;48.050;7.800;2023-02-15T11:17:33;21.47;;;11.90;;
6642;SDS011;3357;48.050;7.800;2023-02-15T11:20:08;16.50;;;11.17;;
6642;SDS011;3357;48.050;7.800;2023-02-15T11:22:37;23.23;;;13.00;;
6642;SDS011;3357;48.050;7.800;2023-02-15T11:25:06;25.20;;;13.23;;
6642;SDS011;3357;48.050;7.800;2023-02-15T11:27:41;23.00;;;13.97;;
6642;SDS011;3357;48.050;7.800;2023-02-15T11:32:45;26.93;;;12.23;;
6642;SDS011;3357;48.050;7.800;2023-02-15T11:37:44;16.13;;;11.03;;
6642;SDS011;3357;48.050;7.800;2023-02-15T11:40:17;19.57;;;12.10;;
6642;SDS011;3357;48.050;7.800;2023-02-15T11:42:46;16.63;;;11.53;;
6642;SDS011;3357;48.050;7.800;2023-02-15T11:47:53;23.10;;;12.33;;
6642;SDS011;3357;48.050;7.800;2023-02-15T11:50:23;21.60;;;11.53;;
6642;SDS011;3357;48.050;7.800;2023-02-15T11:52:51;20.63;;;11.67;;
6642;SDS011;3357;48.050;7.800;2023-02-15T11:55:19;16.57;;;11.20;;
6642;SDS011;3357;48.050;7.800;2023-02-15T11:57:51;17.77;;;11.30;;
6642;SDS011;3357;48.050;7.800;2023-02-15T12:00:24;21.60;;;12.00;;
6642;SDS011;3357;48.050;7.800;2023-02-15T12:02:52;16.50;;;11.00;;
6642;SDS011;3357;48.050;7.800;2023-02-15T12:05:19;20.13;;;12.67;;
6642;SDS011;3357;48.050;7.800;2023-02-15T12:08:31;21.10;;;12.80;;
6642;SDS011;3357;48.050;7.800;2023-02-15T12:13:56;22.50;;;13.93;;
6642;SDS011;3357;48.050;7.800;2023-02-15T12:16:23;18.73;;;12.50;;
6642;SDS011;3357;48.050;7.800;2023-02-15T12:18:50;26.87;;;12.30;;
6642;SDS011;3357;48.050;7.800;2023-02-15T12:21:28;21.43;;;12.60;;
6642;SDS011;3357;48.050;7.800;2023-02-15T12:24:00;17.60;;;11.10;;
6642;SDS011;3357;48.050;7.800;2023-02-15T12:26:31;17.47;;;11.60;;
6642;SDS011;3357;48.050;7.800;2023-02-15T12:29:01;20.87;;;12.30;;
6642;SDS011;3357;48.050;7.800;2023-02-15T12:31:40;20.43;;;12.43;;
6642;SDS011;3357;48.050;7.800;2023-02-15T12:34:09;19.83;;;11.47;;
6642;SDS011;3357;48.050;7.800;2023-02-15T12:36:44;15.30;;;10.90;;
6642;SDS011;3357;48.050;7.800;2023-02-15T12:39:20;15.00;;;10.50;;
6642;SDS011;3357;48.050;7.800;2023-02-15T12:41:56;18.33;;;11.60;;
6642;SDS011;3357;48.050;7.800;2023-02-15T12:44:28;18.73;;;11.27;;
6642;SDS011;3357;48.050;7.800;2023-02-15T12:46:58;16.00;;;11.10;;
6642;SDS011;3357;48.050;7.800;2023-02-15T12:49:33;15.90;;;11.80;;
6642;SDS011;3357;48.050;7.800;2023-02-15T12:52:04;14.00;;;10.70;;
6642;SDS011;3357;48.050;7.800;2023-02-15T13:00:02;17.60;;;11.17;;
6642;SDS011;3357;48.050;7.800;2023-02-15T13:02:43;17.60;;;10.83;;
6642;SDS011;3357;48.050;7.800;2023-02-15T13:05:14;18.17;;;11.10;;
6642;SDS011;3357;48.050;7.800;2023-02-15T13:08:00;18.23;;;11.10;;
6642;SDS011;3357;48.050;7.800;2023-02-15T13:10:33;15.63;;;10.30;;
6642;SDS011;3357;48.050;7.800;2023-02-15T13:13:01;17.07;;;10.40;;
6642;SDS011;3357;48.050;7.800;2023-02-15T13:15:33;19.73;;;12.43;;
6642;SDS011;3357;48.050;7.800;2023-02-15T13:18:01;16.50;;;11.57;;
6642;SDS011;3357;48.050;7.800;2023-02-15T13:20:27;17.00;;;10.73;;
6642;SDS011;3357;48.050;7.800;2023-02-15T13:23:01;16.80;;;10.63;;
6642;SDS011;3357;48.050;7.800;2023-02-15T13:25:31;16.93;;;10.33;;
6642;SDS011;3357;48.050;7.800;2023-02-15T13:28:01;15.00;;;11.03;;
6642;SDS011;3357;48.050;7.800;2023-02-15T13:30:28;16.27;;;10.67;;
6642;SDS011;3357;48.050;7.800;2023-02-15T13:33:00;14.70;;;10.70;;
6642;SDS011;3357;48.050;7.800;2023-02-15T13:35:29;18.10;;;11.63;;
6642;SDS011;3357;48.050;7.800;2023-02-15T13:38:06;16.20;;;11.60;;
6642;SDS011;3357;48.050;7.800;2023-02-15T13:41:09;16.20;;;11.37;;
6642;SDS011;3357;48.050;7.800;2023-02-15T13:43:52;14.37;;;10.47;;
6642;SDS011;3357;48.050;7.800;2023-02-15T13:49:21;16.90;;;10.37;;
6642;SDS011;3357;48.050;7.800;2023-02-15T14:31:47;13.33;;;10.27;;
6642;SDS011;3357;48.050;7.800;2023-02-15T14:34:18;17.17;;;11.50;;
6642;SDS011;3357;48.050;7.800;2023-02-15T14:36:46;13.70;;;10.27;;
6642;SDS011;3357;48.050;7.800;2023-02-15T14:39:18;17.23;;;11.20;;
6642;SDS011;3357;48.050;7.800;2023-02-15T14:42:22;12.67;;;10.20;;
6642;SDS011;3357;48.050;7.800;2023-02-15T14:47:35;15.17;;;10.50;;
6642;SDS011;3357;48.050;7.800;2023-02-15T14:58:38;15.80;;;11.33;;
6642;SDS011;3357;48.050;7.800;2023-02-15T15:03:58;17.33;;;11.23;;
6642;SDS011;3357;48.050;7.800;2023-02-15T15:06:30;21.77;;;13.53;;
6642;SDS011;3357;48.050;7.800;2023-02-15T15:09:11;17.00;;;11.73;;
6642;SDS011;3357;48.050;7.800;2023-02-15T15:11:53;19.23;;;11.00;;
6642;SDS011;3357;48.050;7.800;2023-02-15T15:16:58;19.33;;;11.70;;
6642;SDS011;3357;48.050;7.800;2023-02-15T15:22:24;25.63;;;14.57;;
6642;SDS011;3357;48.050;7.800;2023-02-15T15:24:51;33.57;;;18.70;;
6642;SDS011;3357;48.050;7.800;2023-02-15T15:27:36;22.60;;;13.13;;
6642;SDS011;3357;48.050;7.800;2023-02-15T15:30:01;30.17;;;16.97;;
6642;SDS011;3357;48.050;7.800;2023-02-15T15:32:28;25.57;;;16.13;;
6642;SDS011;3357;48.050;7.800;2023-02-15T15:40:21;36.73;;;20.30;;
6642;SDS011;3357;48.050;7.800;2023-02-15T15:48:24;34.73;;;20.50;;
6642;SDS011;3357;48.050;7.800;2023-02-15T15:50:53;45.23;;;22.90;;
6642;SDS011;3357;48.050;7.800;2023-02-15T15:53:23;33.70;;;19.83;;
6642;SDS011;3357;48.050;7.800;2023-02-15T15:55:50;30.53;;;19.27;;
6642;SDS011;3357;48.050;7.800;2023-02-15T15:58:19;39.63;;;21.60;;
6642;SDS011;3357;48.050;7.800;2023-02-15T16:00:46;44.57;;;23.83;;
6642;SDS011;3357;48.050;7.800;2023-02-15T16:03:24;37.93;;;20.90;;
6642;SDS011;3357;48.050;7.800;2023-02-15T16:05:51;36.17;;;22.03;;
6642;SDS011;3357;48.050;7.800;2023-02-15T16:08:30;30.67;;;20.07;;
6642;SDS011;3357;48.050;7.800;2023-02-15T16:10:57;32.57;;;18.50;;
6642;SDS011;3357;48.050;7.800;2023-02-15T16:13:23;30.30;;;17.77;;
6642;SDS011;3357;48.050;7.800;2023-02-15T16:15:52;33.70;;;18.87;;
6642;SDS011;3357;48.050;7.800;2023-02-15T16:18:25;35.50;;;19.47;;
6642;SDS011;3357;48.050;7.800;2023-02-15T16:21:01;34.87;;;19.63;;
6642;SDS011;3357;48.050;7.800;2023-02-15T16:29:12;41.80;;;20.80;;
6642;SDS011;3357;48.050;7.800;2023-02-15T16:31:39;39.30;;;21.57;;
6642;SDS011;3357;48.050;7.800;2023-02-15T16:34:07;37.43;;;21.50;;
6642;SDS011;3357;48.050;7.800;2023-02-15T16:36:39;40.57;;;21.73;;
6642;SDS011;3357;48.050;7.800;2023-02-15T16:39:09;39.50;;;21.23;;
6642;SDS011;3357;48.050;7.800;2023-02-15T16:41:41;42.40;;;21.87;;
6642;SDS011;3357;48.050;7.800;2023-02-15T16:44:13;40.73;;;21.97;;
6642;SDS011;3357;48.050;7.800;2023-02-15T16:46:44;41.70;;;23.07;;
6642;SDS011;3357;48.050;7.800;2023-02-15T16:49:17;41.70;;;23.90;;
6642;SDS011;3357;48.050;7.800;2023-02-15T16:51:44;91.47;;;42.30;;
6642;SDS011;3357;48.050;7.800;2023-02-15T16:54:19;61.83;;;31.27;;
6642;SDS011;3357;48.050;7.800;2023-02-15T16:56:46;53.27;;;27.90;;
6642;SDS011;3357;48.050;7.800;2023-02-15T16:59:29;68.87;;;33.93;;
6642;SDS011;3357;48.050;7.800;2023-02-15T17:01:57;47.70;;;24.17;;
6642;SDS011;3357;48.050;7.800;2023-02-15T17:04:27;55.47;;;27.63;;
6642;SDS011;3357;48.050;7.800;2023-02-15T17:09:31;51.00;;;28.93;;
6642;SDS011;3357;48.050;7.800;2023-02-15T17:11:57;59.10;;;30.60;;
6642;SDS011;3357;48.050;7.800;2023-02-15T17:14:28;75.17;;;34.70;;
6642;SDS011;3357;48.050;7.800;2023-02-15T17:17:28;54.83;;;25.67;;
6642;SDS011;3357;48.050;7.800;2023-02-15T17:19:53;50.20;;;27.07;;
6642;SDS011;3357;48.050;7.800;2023-02-15T17:22:20;48.27;;;25.80;;
6642;SDS011;3357;48.050;7.800;2023-02-15T17:24:47;48.70;;;25.17;;
6642;SDS011;3357;48.050;7.800;2023-02-15T17:27:15;45.30;;;24.33;;
6642;SDS011;3357;48.050;7.800;2023-02-15T17:29:50;44.30;;;21.47;;
6642;SDS011;3357;48.050;7.800;2023-02-15T17:32:38;42.20;;;22.90;;
6642;SDS011;3357;48.050;7.800;2023-02-15T17:37:42;44.47;;;22.10;;
6642;SDS011;3357;48.050;7.800;2023-02-15T17:42:43;44.30;;;23.90;;
6642;SDS011;3357;48.050;7.800;2023-02-15T17:45:08;46.53;;;25.40;;
6642;SDS011;3357;48.050;7.800;2023-02-15T17:47:34;42.57;;;22.23;;
6642;SDS011;3357;48.050;7.800;2023-02-15T17:49:59;45.40;;;22.90;;
6642;SDS011;3357;48.050;7.800;2023-02-15T17:52:26;39.00;;;22.10;;
6642;SDS011;3357;48.050;7.800;2023-02-15T17:54:53;49.83;;;23.80;;
6642;SDS011;3357;48.050;7.800;2023-02-15T17:57:37;42.10;;;22.13;;
6642;SDS011;3357;48.050;7.800;2023-02-15T18:00:03;43.30;;;22.20;;
6642;SDS011;3357;48.050;7.800;2023-02-15T18:02:47;44.67;;;23.10;;
6642;SDS011;3357;48.050;7.800;2023-02-15T18:05:31;50.13;;;25.40;;
6642;SDS011;3357;48.050;7.800;2023-02-15T18:08:16;50.47;;;25.30;;
6642;SDS011;3357;48.050;7.800;2023-02-15T18:11:01;52.90;;;26.30;;
6642;SDS011;3357;48.050;7.800;2023-02-15T18:13:45;44.80;;;24.90;;
6642;SDS011;3357;48.050;7.800;2023-02-15T18:16:14;45.97;;;24.27;;
6642;SDS011;3357;48.050;7.800;2023-02-15T18:18:41;50.17;;;25.93;;